Time;durP1;ratioP1;P1;durP2;ratioP2;P2;SDS_P1;SDS_P2;PMS_P1;PMS_P2;Temp;Humidity;BMP_temperature;BMP_pressure;BME280_temperature;BME280_humidity;BME280_pressure;Samples;Min_cycle;Max_cycle;Signal;HPM_P1;HPM_P2
2024/01/18 00:00:35;;;;;;;28.75;13.48;;;0.40;99.90;;;;;;5092174;28;20213;-51
2024/01/18 00:03:00;;;;;;;29.00;13.40;;;0.40;99.90;;;;;;5091680;28;20211;-51
2024/01/18 00:05:26;;;;;;;31.23;13.15;;;0.40;99.90;;;;;;5091369;28;20173;-51
2024/01/18 00:07:51;;;;;;;27.10;13.65;;;0.40;99.90;;;;;;5091393;28;20231;-51
2024/01/18 00:10:17;;;;;;;27.75;13.40;;;0.30;99.90;;;;;;5091338;28;20192;-49
2024/01/18 00:12:43;;;;;;;25.88;12.48;;;0.40;99.90;;;;;;5091480;28;20209;-50
2024/01/18 00:15:09;;;;;;;24.08;12.68;;;0.40;99.90;;;;;;5091353;28;20204;-49
2024/01/18 00:17:34;;;;;;;25.08;12.82;;;0.30;99.90;;;;;;5091580;28;20193;-49
2024/01/18 00:20:00;;;;;;;26.77;11.57;;;0.30;99.90;;;;;;5091267;28;20226;-49
2024/01/18 00:22:25;;;;;;;26.08;12.98;;;0.20;99.90;;;;;;5091080;28;20161;-49
2024/01/18 00:24:51;;;;;;;29.73;12.38;;;0.20;99.90;;;;;;5091242;28;20535;-50
2024/01/18 00:27:17;;;;;;;23.83;12.57;;;0.20;99.90;;;;;;5091216;28;20524;-49
2024/01/18 00:29:42;;;;;;;28.33;13.00;;;0.20;99.90;;;;;;5091252;28;20628;-49
2024/01/18 00:32:08;;;;;;;22.30;13.13;;;0.20;99.90;;;;;;5091033;28;20171;-49
2024/01/18 00:34:33;;;;;;;21.35;12.50;;;0.20;99.90;;;;;;5091430;28;20165;-49
2024/01/18 00:36:59;;;;;;;21.20;12.10;;;0.20;99.90;;;;;;5091027;28;20168;-51
2024/01/18 00:39:24;;;;;;;20.05;11.35;;;0.20;99.90;;;;;;5090911;28;20288;-48
2024/01/18 00:41:50;;;;;;;21.95;12.55;;;0.20;99.90;;;;;;5091012;28;20621;-51
2024/01/18 00:44:16;;;;;;;20.58;12.15;;;0.20;99.90;;;;;;5090977;28;20165;-49
2024/01/18 00:46:41;;;;;;;25.23;10.85;;;0.30;99.90;;;;;;5090941;28;20172;-49
2024/01/18 00:49:07;;;;;;;20.02;11.82;;;0.20;99.90;;;;;;5091181;28;20169;-49
2024/01/18 00:51:33;;;;;;;24.73;12.57;;;0.30;99.90;;;;;;5093584;28;20644;-50
2024/01/18 00:53:58;;;;;;;20.20;11.70;;;0.30;99.90;;;;;;5094880;28;20502;-50
2024/01/18 00:56:24;;;;;;;27.80;11.85;;;0.30;99.90;;;;;;5094556;28;20220;-50
2024/01/18 00:58:50;;;;;;;22.55;12.80;;;0.40;99.90;;;;;;5094667;28;20221;-48
2024/01/18 01:01:16;;;;;;;30.70;12.15;;;0.40;99.90;;;;;;5094515;28;20158;-49
2024/01/18 01:03:41;;;;;;;33.28;11.98;;;0.40;99.90;;;;;;5092997;28;20173;-49
2024/01/18 01:06:11;;;;;;;34.03;13.30;;;0.40;99.90;;;;;;5094362;28;20181;-48
2024/01/18 01:08:37;;;;;;;19.52;11.50;;;0.40;99.90;;;;;;5094263;28;20165;-50
2024/01/18 01:11:03;;;;;;;31.35;11.77;;;0.40;99.90;;;;;;5095076;28;20161;-53
2024/01/18 01:13:29;;;;;;;27.65;12.07;;;0.40;99.90;;;;;;5094756;28;20174;-50
2024/01/18 01:15:55;;;;;;;26.80;12.02;;;0.40;99.90;;;;;;5094351;28;20623;-50
2024/01/18 01:18:20;;;;;;;26.42;13.10;;;0.30;99.90;;;;;;5094335;28;20212;-50
2024/01/18 01:20:46;;;;;;;28.08;13.15;;;0.20;99.90;;;;;;5094382;28;20177;-50
2024/01/18 01:23:12;;;;;;;21.65;10.98;;;0.20;99.90;;;;;;5094586;28;20165;-49
2024/01/18 01:25:37;;;;;;;20.80;11.52;;;0.30;99.90;;;;;;5094268;28;20162;-49
2024/01/18 01:28:04;;;;;;;26.52;12.73;;;0.30;99.90;;;;;;5094679;28;20169;-53
2024/01/18 01:30:29;;;;;;;21.40;13.10;;;0.40;99.90;;;;;;5094107;28;20170;-50
2024/01/18 01:32:55;;;;;;;17.48;10.75;;;0.40;99.90;;;;;;5094050;28;20221;-48
2024/01/18 01:35:20;;;;;;;25.45;13.13;;;0.40;99.90;;;;;;5094108;28;20162;-50
2024/01/18 01:37:46;;;;;;;23.92;11.38;;;0.40;99.90;;;;;;5093721;28;20189;-49
2024/01/18 01:40:11;;;;;;;31.33;13.45;;;0.40;99.90;;;;;;5093631;28;20177;-48
2024/01/18 01:42:37;;;;;;;28.92;11.75;;;0.50;99.90;;;;;;5094072;28;20169;-51
2024/01/18 01:45:04;;;;;;;29.65;13.48;;;0.40;99.90;;;;;;5094583;28;20169;-53
2024/01/18 01:47:29;;;;;;;20.15;11.80;;;0.40;99.90;;;;;;5093393;28;20176;-51
2024/01/18 01:49:55;;;;;;;19.80;12.02;;;0.40;99.90;;;;;;5094047;28;20166;-50
2024/01/18 01:52:22;;;;;;;23.83;11.77;;;0.40;99.90;;;;;;5093669;28;20172;-55
2024/01/18 01:54:48;;;;;;;18.30;11.85;;;0.40;99.90;;;;;;5093288;28;20207;-53
2024/01/18 01:57:16;;;;;;;20.73;12.70;;;0.40;99.90;;;;;;5092720;28;20224;-52
2024/01/18 01:59:42;;;;;;;23.50;12.70;;;0.40;99.90;;;;;;5093665;28;20532;-52
2024/01/18 02:02:09;;;;;;;27.60;12.88;;;0.40;99.90;;;;;;5093111;28;20200;-51
2024/01/18 02:04:35;;;;;;;19.42;12.40;;;0.30;99.90;;;;;;5094015;28;20649;-50
2024/01/18 02:07:02;;;;;;;22.70;11.93;;;0.30;99.90;;;;;;5094051;28;20169;-52
2024/01/18 02:09:28;;;;;;;21.65;12.85;;;0.30;99.90;;;;;;5093457;28;20161;-51
2024/01/18 02:11:54;;;;;;;21.63;12.20;;;0.30;99.90;;;;;;5093438;28;20537;-51
2024/01/18 02:14:19;;;;;;;26.67;14.88;;;0.20;99.90;;;;;;5092036;28;20169;-54
2024/01/18 02:16:45;;;;;;;23.25;12.27;;;0.30;99.90;;;;;;5093257;28;20162;-55
2024/01/18 02:19:10;;;;;;;23.23;13.48;;;0.30;99.90;;;;;;5092652;28;20205;-54
2024/01/18 02:21:37;;;;;;;23.13;13.15;;;0.30;99.90;;;;;;5093043;28;20199;-53
2024/01/18 02:24:15;;;;;;;20.40;12.70;;;0.40;99.90;;;;;;5093546;28;20169;-52
2024/01/18 02:26:41;;;;;;;23.13;12.95;;;0.40;99.90;;;;;;5093129;28;20165;-52
2024/01/18 02:29:06;;;;;;;23.15;13.20;;;0.40;99.90;;;;;;5093286;28;20184;-51
2024/01/18 02:31:32;;;;;;;25.58;12.93;;;0.40;99.90;;;;;;5093069;28;20593;-50
2024/01/18 02:33:57;;;;;;;25.75;13.30;;;0.40;99.90;;;;;;5092843;28;20167;-50
2024/01/18 02:36:23;;;;;;;18.30;12.25;;;0.40;99.90;;;;;;5092999;28;20245;-49
2024/01/18 02:38:50;;;;;;;24.00;13.00;;;0.40;99.90;;;;;;5092788;28;20660;-52
2024/01/18 02:41:16;;;;;;;24.48;14.63;;;0.40;99.90;;;;;;5092978;28;20192;-49
2024/01/18 02:43:42;;;;;;;22.90;13.68;;;0.40;99.90;;;;;;5091733;28;20677;-51
2024/01/18 02:46:07;;;;;;;25.60;13.82;;;0.30;99.90;;;;;;5091908;28;20621;-50
2024/01/18 02:48:33;;;;;;;27.42;12.85;;;0.30;99.90;;;;;;5092922;28;20197;-50
2024/01/18 02:50:59;;;;;;;23.23;13.70;;;0.40;99.90;;;;;;5092406;28;20172;-51
2024/01/18 02:53:24;;;;;;;21.60;12.35;;;0.50;99.90;;;;;;5091519;28;20166;-50
2024/01/18 02:55:50;;;;;;;22.77;13.40;;;0.50;99.90;;;;;;5092445;28;20221;-50
2024/01/18 02:58:16;;;;;;;24.95;14.13;;;0.50;99.90;;;;;;5092411;28;20201;-49
2024/01/18 03:00:42;;;;;;;24.60;13.70;;;0.50;99.90;;;;;;5092618;28;20172;-51
2024/01/18 03:03:08;;;;;;;21.00;12.63;;;0.50;99.90;;;;;;5092323;28;20165;-49
2024/01/18 03:05:34;;;;;;;25.17;14.43;;;0.50;99.90;;;;;;5092790;28;20172;-51
2024/01/18 03:08:00;;;;;;;22.58;12.88;;;0.50;99.90;;;;;;5092307;28;20197;-51
2024/01/18 03:10:25;;;;;;;25.92;13.18;;;0.50;99.90;;;;;;5092035;28;20196;-54
2024/01/18 03:12:51;;;;;;;24.48;13.13;;;0.60;99.90;;;;;;5091892;28;20169;-52
2024/01/18 03:15:16;;;;;;;19.48;12.52;;;0.50;99.90;;;;;;5091111;28;20169;-54
2024/01/18 03:17:42;;;;;;;25.33;13.18;;;0.50;99.90;;;;;;5091963;28;20208;-55
2024/01/18 03:20:08;;;;;;;25.63;13.73;;;0.50;99.90;;;;;;5092074;28;20166;-55
2024/01/18 03:22:36;;;;;;;22.58;13.27;;;0.50;99.90;;;;;;5092566;28;20650;-55
2024/01/18 03:25:02;;;;;;;20.73;13.18;;;0.40;99.90;;;;;;5092607;28;20184;-55
2024/01/18 03:27:27;;;;;;;22.80;14.20;;;0.40;99.90;;;;;;5091973;28;20169;-55
2024/01/18 03:29:53;;;;;;;24.80;13.55;;;0.40;99.90;;;;;;5091896;28;20647;-54
2024/01/18 03:32:18;;;;;;;25.70;14.10;;;0.40;99.90;;;;;;5091882;28;20193;-55
2024/01/18 03:34:44;;;;;;;24.60;14.35;;;0.40;99.90;;;;;;5091589;28;20169;-53
2024/01/18 03:37:10;;;;;;;25.63;13.60;;;0.40;99.90;;;;;;5091979;28;20162;-55
2024/01/18 03:39:36;;;;;;;26.63;13.30;;;0.40;99.90;;;;;;5092177;28;20732;-54
2024/01/18 03:42:02;;;;;;;30.60;14.43;;;0.40;99.90;;;;;;5092402;28;20173;-55
2024/01/18 03:44:27;;;;;;;30.38;14.23;;;0.50;99.90;;;;;;5091317;28;20169;-55
2024/01/18 03:46:53;;;;;;;25.17;13.98;;;0.50;99.90;;;;;;5091546;28;20180;-55
2024/01/18 03:49:20;;;;;;;21.70;13.80;;;0.40;99.90;;;;;;5090347;28;20165;-55
2024/01/18 03:51:45;;;;;;;24.85;14.00;;;0.40;99.90;;;;;;5091573;28;20263;-55
2024/01/18 03:54:11;;;;;;;26.45;15.32;;;0.40;99.90;;;;;;5091540;28;20248;-55
2024/01/18 03:56:36;;;;;;;32.78;14.38;;;0.40;99.90;;;;;;5091266;28;20217;-55
2024/01/18 03:59:02;;;;;;;26.08;14.48;;;0.50;99.90;;;;;;5091924;28;20212;-55
2024/01/18 04:01:31;;;;;;;22.15;13.57;;;0.40;99.90;;;;;;5091708;28;20169;-55
2024/01/18 04:03:57;;;;;;;28.58;13.68;;;0.40;99.90;;;;;;5091425;28;20683;-54
2024/01/18 04:06:23;;;;;;;25.13;13.82;;;0.30;99.90;;;;;;5091252;28;20257;-55
2024/01/18 04:08:49;;;;;;;26.55;14.70;;;0.40;99.90;;;;;;5091324;28;20168;-54
2024/01/18 04:11:14;;;;;;;22.98;14.23;;;0.40;99.90;;;;;;5091311;28;20165;-55
2024/01/18 04:13:40;;;;;;;25.00;14.73;;;0.30;99.90;;;;;;5091392;28;20173;-55
2024/01/18 04:16:06;;;;;;;26.80;15.80;;;0.20;99.90;;;;;;5091239;28;20171;-54
2024/01/18 04:18:31;;;;;;;28.40;15.10;;;0.20;99.90;;;;;;5090397;28;20295;-55
2024/01/18 04:20:57;;;;;;;34.17;15.45;;;0.20;99.90;;;;;;5089999;28;20187;-55
2024/01/18 04:23:23;;;;;;;28.80;15.52;;;0.20;99.90;;;;;;5090923;28;20256;-53
2024/01/18 04:25:52;;;;;;;28.45;16.77;;;0.30;99.90;;;;;;5091950;28;20244;-55
2024/01/18 04:28:21;;;;;;;27.70;15.88;;;0.20;99.90;;;;;;5095364;28;20745;-50
2024/01/18 04:30:47;;;;;;;24.27;14.38;;;0.20;99.90;;;;;;5095600;28;20218;-54
2024/01/18 04:33:13;;;;;;;29.63;16.10;;;0.10;99.90;;;;;;5095371;28;20173;-55
2024/01/18 04:35:39;;;;;;;25.65;15.77;;;0.10;99.90;;;;;;5095172;28;20165;-55
2024/01/18 04:38:05;;;;;;;29.33;15.57;;;0.10;99.90;;;;;;5095628;28;20727;-55
2024/01/18 04:40:31;;;;;;;26.05;15.35;;;0.10;99.90;;;;;;5095759;28;20520;-55
2024/01/18 04:42:56;;;;;;;24.95;15.38;;;0.20;99.90;;;;;;5095035;28;20170;-55
2024/01/18 04:45:23;;;;;;;23.70;14.90;;;0.20;99.90;;;;;;5095039;28;20360;-55
2024/01/18 04:47:51;;;;;;;28.65;15.90;;;0.20;99.90;;;;;;5094883;28;20165;-50
2024/01/18 04:50:20;;;;;;;20.55;13.10;;;0.20;99.90;;;;;;5094935;28;20252;-52
2024/01/18 04:52:46;;;;;;;27.95;16.20;;;0.10;99.90;;;;;;5095185;28;20165;-52
2024/01/18 04:55:12;;;;;;;26.63;16.20;;;0.20;99.90;;;;;;5093965;28;20201;-50
2024/01/18 04:57:39;;;;;;;24.92;16.13;;;0.30;99.90;;;;;;5094657;28;20256;-51
2024/01/18 05:00:10;;;;;;;26.52;16.02;;;0.30;99.90;;;;;;5095183;28;20659;-51
2024/01/18 05:02:36;;;;;;;27.30;15.80;;;0.30;99.90;;;;;;5094965;28;20177;-52
2024/01/18 05:05:02;;;;;;;29.40;15.93;;;0.40;99.90;;;;;;5094709;28;20176;-52
2024/01/18 05:07:27;;;;;;;28.73;15.50;;;0.40;99.90;;;;;;5095010;28;20165;-52
2024/01/18 05:09:53;;;;;;;28.48;16.48;;;0.30;99.90;;;;;;5094287;28;20188;-52
2024/01/18 05:12:18;;;;;;;31.73;17.02;;;0.30;99.90;;;;;;5094594;28;20538;-51
2024/01/18 05:14:44;;;;;;;32.95;16.63;;;0.30;99.90;;;;;;5094652;28;20173;-52
2024/01/18 05:17:13;;;;;;;30.10;16.38;;;0.30;99.90;;;;;;5094594;28;20169;-51
2024/01/18 05:19:39;;;;;;;29.25;16.02;;;0.30;99.90;;;;;;5093220;28;20219;-51
2024/01/18 05:22:04;;;;;;;27.60;16.33;;;0.30;99.90;;;;;;5095109;28;20636;-51
2024/01/18 05:24:30;;;;;;;24.98;14.15;;;0.30;99.90;;;;;;5094345;28;20171;-52
2024/01/18 05:26:56;;;;;;;30.55;16.20;;;0.30;99.90;;;;;;5094257;28;20189;-51
2024/01/18 05:29:22;;;;;;;32.78;15.75;;;0.30;99.90;;;;;;5094236;28;20161;-51
2024/01/18 05:31:47;;;;;;;26.67;14.88;;;0.20;99.90;;;;;;5094189;28;20165;-51
2024/01/18 05:34:13;;;;;;;35.05;17.20;;;0.30;99.90;;;;;;5094146;28;20161;-51
2024/01/18 05:36:38;;;;;;;27.40;14.75;;;0.20;99.90;;;;;;5093645;28;20169;-51
2024/01/18 05:39:04;;;;;;;28.85;15.85;;;0.20;99.90;;;;;;5093634;28;20698;-51
2024/01/18 05:41:30;;;;;;;32.20;15.75;;;0.20;99.90;;;;;;5094516;28;20222;-51
2024/01/18 05:43:56;;;;;;;29.65;15.52;;;0.30;99.90;;;;;;5093827;28;20165;-50
2024/01/18 05:46:22;;;;;;;30.38;16.17;;;0.30;99.90;;;;;;5093789;28;20161;-51
2024/01/18 05:48:48;;;;;;;30.50;16.77;;;0.30;99.90;;;;;;5094140;28;20174;-51
2024/01/18 05:51:14;;;;;;;28.60;15.52;;;0.30;99.90;;;;;;5093747;28;20161;-51
2024/01/18 05:53:40;;;;;;;30.23;15.40;;;0.30;99.90;;;;;;5094006;28;20651;-50
2024/01/18 05:56:06;;;;;;;27.13;16.52;;;0.30;99.90;;;;;;5093595;28;20205;-50
2024/01/18 05:58:32;;;;;;;32.50;16.13;;;0.30;99.90;;;;;;5094272;28;20213;-51
2024/01/18 06:00:58;;;;;;;29.92;17.02;;;0.40;99.90;;;;;;5093605;28;20183;-52
2024/01/18 06:03:23;;;;;;;31.50;16.20;;;0.40;99.90;;;;;;5093810;28;20185;-52
2024/01/18 06:05:49;;;;;;;31.63;15.95;;;0.30;99.90;;;;;;5093569;28;20529;-52
2024/01/18 06:08:16;;;;;;;30.52;16.42;;;0.30;99.90;;;;;;5092224;28;20177;-52
2024/01/18 06:10:42;;;;;;;31.92;16.52;;;0.40;99.90;;;;;;5093622;28;20165;-50
2024/01/18 06:13:09;;;;;;;28.30;16.40;;;0.30;99.90;;;;;;5093432;28;20161;-51
2024/01/18 06:15:35;;;;;;;29.67;16.77;;;0.40;99.90;;;;;;5092212;28;20169;-51
2024/01/18 06:18:03;;;;;;;32.53;15.98;;;0.40;99.90;;;;;;5093976;28;20250;-50
2024/01/18 06:20:30;;;;;;;26.45;16.45;;;0.30;99.90;;;;;;5093557;28;20173;-51
2024/01/18 06:22:57;;;;;;;29.75;17.10;;;0.30;99.90;;;;;;5093232;28;20592;-51
2024/01/18 06:25:23;;;;;;;35.97;16.60;;;0.30;99.90;;;;;;5093054;28;20173;-52
2024/01/18 06:27:49;;;;;;;28.35;16.75;;;0.40;99.90;;;;;;5093140;28;20166;-51
2024/01/18 06:30:14;;;;;;;35.15;17.00;;;0.40;99.90;;;;;;5093014;28;20676;-50
2024/01/18 06:32:40;;;;;;;35.00;17.27;;;0.40;99.90;;;;;;5093184;28;20165;-50
2024/01/18 06:35:06;;;;;;;38.13;17.33;;;0.40;99.90;;;;;;5092953;28;20169;-50
2024/01/18 06:37:32;;;;;;;31.13;15.95;;;0.40;99.90;;;;;;5093272;28;20153;-52
2024/01/18 06:39:57;;;;;;;27.95;16.52;;;0.30;99.90;;;;;;5092772;28;20625;-50
2024/01/18 06:42:23;;;;;;;36.50;16.70;;;0.30;99.90;;;;;;5092873;28;20169;-51
2024/01/18 06:44:48;;;;;;;27.67;16.15;;;0.30;99.90;;;;;;5092787;28;20632;-54
2024/01/18 06:47:14;;;;;;;32.90;16.15;;;0.30;99.90;;;;;;5092617;28;20498;-55
2024/01/18 06:49:40;;;;;;;39.58;17.15;;;0.40;99.90;;;;;;5092400;28;20174;-54
2024/01/18 06:52:05;;;;;;;52.17;22.67;;;0.40;99.90;;;;;;5092858;28;20226;-54
2024/01/18 06:54:31;;;;;;;77.28;24.80;;;0.40;99.90;;;;;;5093013;28;20165;-53
2024/01/18 06:56:57;;;;;;;225.18;41.20;;;0.40;99.90;;;;;;5092307;28;20296;-55
2024/01/18 06:59:22;;;;;;;27.15;16.65;;;0.30;99.90;;;;;;5092610;28;20243;-51
2024/01/18 07:01:48;;;;;;;31.15;16.13;;;0.30;99.90;;;;;;5092461;28;20641;-55
2024/01/18 07:04:13;;;;;;;31.80;15.48;;;0.20;99.90;;;;;;5092512;28;20169;-55
2024/01/18 07:06:39;;;;;;;36.47;15.07;;;0.20;99.90;;;;;;5092394;28;20252;-55
2024/01/18 07:09:06;;;;;;;25.20;15.52;;;0.10;99.90;;;;;;5092612;28;20165;-54
2024/01/18 07:11:32;;;;;;;28.85;14.68;;;0.20;99.90;;;;;;5092999;28;20217;-53
2024/01/18 07:13:57;;;;;;;27.23;15.27;;;0.10;99.90;;;;;;5092150;28;20173;-54
2024/01/18 07:16:23;;;;;;;25.25;14.80;;;0.10;99.90;;;;;;5092123;28;20173;-54
2024/01/18 07:18:49;;;;;;;25.10;14.88;;;0.10;99.90;;;;;;5092111;28;20211;-49
2024/01/18 07:21:15;;;;;;;27.83;15.00;;;0.10;99.90;;;;;;5092113;28;20619;-49
2024/01/18 07:23:41;;;;;;;29.90;14.68;;;0.00;99.90;;;;;;5092315;28;20183;-51
2024/01/18 07:26:06;;;;;;;29.25;15.63;;;-0.10;99.90;;;;;;5092035;28;20240;-54
2024/01/18 07:28:32;;;;;;;26.17;15.30;;;-0.10;99.90;;;;;;5092459;28;20173;-53
2024/01/18 07:30:58;;;;;;;30.25;15.32;;;-0.10;99.90;;;;;;5091984;28;20669;-54
2024/01/18 07:33:23;;;;;;;33.17;16.00;;;-0.10;99.90;;;;;;5092127;28;20192;-51
2024/01/18 07:35:49;;;;;;;29.38;16.92;;;-0.10;99.90;;;;;;5090939;28;20686;-54
2024/01/18 07:38:14;;;;;;;34.70;17.63;;;-0.10;99.90;;;;;;5091709;28;20229;-54
2024/01/18 07:40:40;;;;;;;30.42;16.92;;;-0.10;99.90;;;;;;5091804;28;20173;-50
2024/01/18 07:43:06;;;;;;;31.38;15.32;;;-0.20;99.90;;;;;;5091746;28;20160;-53
2024/01/18 07:45:32;;;;;;;32.28;15.90;;;-0.30;99.90;;;;;;5092402;28;20236;-54
2024/01/18 07:47:57;;;;;;;28.08;16.20;;;-0.40;99.90;;;;;;5091602;28;20175;-54
2024/01/18 07:50:23;;;;;;;27.75;14.85;;;-0.40;99.90;;;;;;5091616;28;20632;-54
2024/01/18 07:52:48;;;;;;;29.33;14.98;;;-0.30;99.90;;;;;;5091580;28;20176;-53
2024/01/18 07:55:15;;;;;;;31.05;14.52;;;-0.40;99.90;;;;;;5091578;28;20183;-54
2024/01/18 07:57:41;;;;;;;36.72;15.52;;;-0.50;99.90;;;;;;5091197;28;20213;-54
2024/01/18 08:00:08;;;;;;;29.90;14.88;;;-0.50;99.90;;;;;;5090841;28;20640;-51
2024/01/18 08:02:34;;;;;;;33.55;15.57;;;-0.50;99.90;;;;;;5091977;28;20166;-53
2024/01/18 08:05:00;;;;;;;26.88;16.88;;;-0.50;99.90;;;;;;5091680;28;20640;-51
2024/01/18 08:07:25;;;;;;;31.80;16.58;;;-0.50;99.90;;;;;;5091304;28;20242;-53
2024/01/18 08:09:51;;;;;;;38.10;15.75;;;-0.60;99.90;;;;;;5090083;28;20170;-53
2024/01/18 08:12:16;;;;;;;31.35;15.73;;;-0.70;99.90;;;;;;5091527;28;20252;-53
2024/01/18 08:14:43;;;;;;;31.83;15.85;;;-0.80;99.90;;;;;;5091396;28;20706;-52
2024/01/18 08:17:09;;;;;;;138.02;18.27;;;-0.80;99.90;;;;;;5091263;28;20686;-52
2024/01/18 08:19:34;;;;;;;100.05;19.45;;;-1.00;99.90;;;;;;5091874;28;20213;-49
2024/01/18 08:22:00;;;;;;;53.88;17.95;;;-1.00;99.90;;;;;;5091937;28;20162;-50
2024/01/18 08:24:25;;;;;;;81.00;19.33;;;-1.20;99.90;;;;;;5091190;28;20227;-49
2024/01/18 08:26:51;;;;;;;37.15;16.63;;;-1.20;99.90;;;;;;5091109;28;20166;-49
2024/01/18 08:29:17;;;;;;;38.47;15.82;;;-1.20;99.90;;;;;;5091021;28;20165;-49
2024/01/18 08:31:42;;;;;;;32.97;16.38;;;-1.20;99.90;;;;;;5091081;28;20180;-50
2024/01/18 08:34:08;;;;;;;29.60;14.63;;;-1.10;99.90;;;;;;5091136;28;20165;-50
2024/01/18 08:36:36;;;;;;;32.08;15.70;;;-1.10;99.90;;;;;;5091448;28;20175;-51
2024/01/18 08:39:02;;;;;;;27.58;15.15;;;0.90;99.90;;;;;;5091462;28;20215;-52
2024/01/18 08:41:27;;;;;;;30.52;16.30;;;-0.90;99.90;;;;;;5091280;28;20157;-51
2024/01/18 08:43:53;;;;;;;27.20;15.38;;;-0.90;99.90;;;;;;5091046;28;20529;-51
2024/01/18 08:46:18;;;;;;;27.70;15.00;;;-0.90;99.90;;;;;;5090981;28;20508;-52
2024/01/18 08:48:44;;;;;;;22.30;13.43;;;-0.70;99.90;;;;;;5090917;28;20649;-52
2024/01/18 08:51:13;;;;;;;22.70;13.32;;;-0.50;99.90;;;;;;5090916;28;20692;-50
2024/01/18 08:53:42;;;;;;;30.88;14.52;;;-0.40;99.90;;;;;;5090855;28;20621;-53
2024/01/18 08:56:08;;;;;;;25.25;16.08;;;-0.20;99.90;;;;;;5090919;28;20217;-52
2024/01/18 08:58:35;;;;;;;24.58;15.45;;;-0.20;99.90;;;;;;5090284;28;20228;-53
2024/01/18 09:01:00;;;;;;;30.10;17.50;;;-0.10;99.90;;;;;;5090102;28;20256;-54
2024/01/18 09:03:27;;;;;;;30.27;16.40;;;-0.10;99.90;;;;;;5090840;28;20201;-53
2024/01/18 09:05:52;;;;;;;35.72;19.13;;;0.00;99.90;;;;;;5091069;28;20173;-52
2024/01/18 09:08:18;;;;;;;28.88;14.60;;;0.00;99.90;;;;;;5090811;28;20534;-54
2024/01/18 09:10:43;;;;;;;18.55;11.07;;;0.00;99.90;;;;;;5091050;28;20214;-53
2024/01/18 09:13:09;;;;;;;17.23;11.07;;;0.10;99.90;;;;;;5092611;28;20176;-52
2024/01/18 09:15:36;;;;;;;21.55;12.40;;;0.20;99.90;;;;;;5094548;28;20173;-53
2024/01/18 09:18:01;;;;;;;24.10;12.10;;;0.30;99.90;;;;;;5094987;28;20673;-51
2024/01/18 09:20:27;;;;;;;22.35;12.77;;;0.40;99.90;;;;;;5094464;28;20252;-52
2024/01/18 09:22:52;;;;;;;27.38;14.20;;;0.60;99.90;;;;;;5094391;28;20162;-52
2024/01/18 09:25:18;;;;;;;24.52;14.20;;;0.70;99.90;;;;;;5094275;28;20252;-51
2024/01/18 09:27:44;;;;;;;22.25;14.63;;;0.80;99.90;;;;;;5094632;28;20168;-51
2024/01/18 09:30:10;;;;;;;26.20;14.27;;;0.80;99.90;;;;;;5094328;28;20169;-52
2024/01/18 09:32:36;;;;;;;23.85;15.50;;;0.80;99.90;;;;;;5094424;28;20250;-53
2024/01/18 09:35:05;;;;;;;23.98;15.30;;;0.90;99.90;;;;;;5094891;28;20206;-52
2024/01/18 09:37:31;;;;;;;26.35;16.80;;;1.10;99.90;;;;;;5094769;28;20180;-52
2024/01/18 09:39:57;;;;;;;25.30;15.15;;;1.10;99.90;;;;;;5094394;28;20173;-50
2024/01/18 09:42:28;;;;;;;29.08;16.50;;;1.10;99.90;;;;;;5094331;28;20223;-49
2024/01/18 09:45:07;;;;;;;25.77;15.50;;;1.10;99.90;;;;;;5093938;28;20175;-52
2024/01/18 09:47:33;;;;;;;28.42;16.88;;;1.30;99.90;;;;;;5094593;28;20172;-51
2024/01/18 09:49:59;;;;;;;33.72;16.85;;;1.40;99.90;;;;;;5093815;28;20165;-51
2024/01/18 09:52:25;;;;;;;30.33;17.35;;;1.40;99.90;;;;;;5093721;28;20724;-51
2024/01/18 09:54:50;;;;;;;34.70;20.92;;;1.40;99.90;;;;;;5093731;28;20252;-54
2024/01/18 09:57:22;;;;;;;33.33;19.52;;;1.40;99.90;;;;;;5093623;28;20220;-52
2024/01/18 09:59:50;;;;;;;23.67;15.27;;;1.40;99.90;;;;;;5093620;28;20559;-53
2024/01/18 10:02:16;;;;;;;31.58;15.65;;;1.40;99.90;;;;;;5093745;28;20173;-54
2024/01/18 10:04:42;;;;;;;19.67;13.80;;;1.60;99.90;;;;;;5093668;28;20169;-54
2024/01/18 10:07:08;;;;;;;26.73;13.75;;;1.60;99.90;;;;;;5093735;28;20511;-54
2024/01/18 10:09:34;;;;;;;27.60;14.70;;;1.60;99.90;;;;;;5093986;28;20162;-54
2024/01/18 10:11:59;;;;;;;35.08;14.70;;;1.40;99.90;;;;;;5094024;28;20180;-49
2024/01/18 10:14:42;;;;;;;26.17;15.07;;;1.50;99.90;;;;;;5093309;28;20157;-51
2024/01/18 10:17:08;;;;;;;30.58;15.15;;;1.50;99.90;;;;;;5093575;28;20181;-53
2024/01/18 10:19:34;;;;;;;28.20;15.43;;;1.50;99.90;;;;;;5093609;28;20197;-51
2024/01/18 10:22:00;;;;;;;27.08;14.68;;;3.60;99.90;;;;;;5093781;28;20170;-51
2024/01/18 10:24:26;;;;;;;28.60;14.13;;;1.50;99.90;;;;;;5092586;28;20161;-53
2024/01/18 10:27:04;;;;;;;28.05;14.32;;;1.80;99.90;;;;;;5093169;28;20165;-50
2024/01/18 10:29:35;;;;;;;22.85;14.20;;;1.90;99.90;;;;;;5093513;28;20705;-53
2024/01/18 10:32:06;;;;;;;22.90;13.80;;;2.00;99.90;;;;;;5093465;28;20742;-50
2024/01/18 10:34:36;;;;;;;23.65;14.75;;;2.10;99.90;;;;;;5093562;28;20256;-52
2024/01/18 10:37:02;;;;;;;20.63;13.45;;;2.20;99.90;;;;;;5093556;28;20703;-51
2024/01/18 10:39:40;;;;;;;23.33;14.25;;;2.20;99.90;;;;;;5093103;28;20243;-55
2024/01/18 10:42:10;;;;;;;21.58;13.77;;;2.40;99.90;;;;;;5092878;28;20171;-52
2024/01/18 10:44:41;;;;;;;23.17;13.65;;;2.50;99.90;;;;;;5092637;28;20539;-53
2024/01/18 10:47:15;;;;;;;24.15;13.50;;;2.30;99.90;;;;;;5092693;28;20673;-50
2024/01/18 10:49:43;;;;;;;23.83;12.13;;;2.20;99.90;;;;;;5092661;28;20200;-50
2024/01/18 10:52:11;;;;;;;21.08;13.50;;;2.10;99.90;;;;;;5092643;28;20176;-51
2024/01/18 10:54:37;;;;;;;20.67;12.25;;;2.00;99.90;;;;;;5092603;28;20162;-50
2024/01/18 10:57:04;;;;;;;22.63;13.07;;;1.90;99.90;;;;;;5093062;28;20221;-50
2024/01/18 10:59:30;;;;;;;18.80;12.48;;;2.00;99.90;;;;;;5092005;28;20211;-50
2024/01/18 11:01:59;;;;;;;21.27;12.70;;;2.20;99.90;;;;;;5092591;28;20165;-54
2024/01/18 11:04:26;;;;;;;25.27;12.60;;;2.30;99.90;;;;;;5092623;28;20256;-51
2024/01/18 11:06:57;;;;;;;24.75;12.40;;;2.50;99.90;;;;;;5092391;28;20624;-50
2024/01/18 11:09:28;;;;;;;16.77;11.60;;;2.60;99.90;;;;;;5092521;28;20173;-51
2024/01/18 11:11:58;;;;;;;17.80;11.85;;;2.60;99.90;;;;;;5092315;28;20196;-52
2024/01/18 11:14:26;;;;;;;22.42;11.88;;;2.40;99.90;;;;;;5092613;28;20177;-51
2024/01/18 11:16:52;;;;;;;23.05;12.07;;;2.40;99.90;;;;;;5092216;28;20218;-50
2024/01/18 11:19:43;;;;;;;16.42;12.18;;;2.20;99.90;;;;;;5092479;28;20205;-50
2024/01/18 11:22:12;;;;;;;23.27;12.95;;;2.30;99.90;;;;;;5090888;28;20169;-52
2024/01/18 11:24:38;;;;;;;27.83;14.02;;;2.10;99.90;;;;;;5092081;28;20201;-51
2024/01/18 11:27:20;;;;;;;17.98;11.95;;;2.00;99.90;;;;;;5092734;28;20169;-51
2024/01/18 11:29:46;;;;;;;18.13;12.73;;;1.90;99.90;;;;;;5091976;28;20166;-51
2024/01/18 11:32:14;;;;;;;27.15;13.88;;;1.90;99.90;;;;;;5091957;28;20161;-52
2024/01/18 11:34:40;;;;;;;22.40;14.43;;;1.90;99.90;;;;;;5091429;28;20535;-54
2024/01/18 11:37:24;;;;;;;19.38;13.20;;;1.80;99.90;;;;;;5091624;28;20169;-52
2024/01/18 11:39:50;;;;;;;20.73;13.13;;;1.70;99.90;;;;;;5091627;28;20196;-55
2024/01/18 11:42:25;;;;;;;18.65;13.48;;;1.60;99.90;;;;;;5091768;28;20501;-52
2024/01/18 11:44:59;;;;;;;24.50;13.77;;;1.50;99.90;;;;;;5091668;28;20168;-53
2024/01/18 11:47:28;;;;;;;19.38;13.07;;;1.50;99.90;;;;;;5090278;28;20187;-52
2024/01/18 11:49:54;;;;;;;20.25;13.95;;;1.60;99.90;;;;;;5091622;28;20240;-52
2024/01/18 11:52:23;;;;;;;26.38;13.45;;;1.60;99.90;;;;;;5091541;28;20181;-54
2024/01/18 11:54:55;;;;;;;21.75;13.90;;;1.40;99.90;;;;;;5091628;28;20617;-51
2024/01/18 11:57:22;;;;;;;19.05;13.52;;;1.40;99.90;;;;;;5091418;28;20592;-55
2024/01/18 11:59:48;;;;;;;23.48;14.75;;;1.40;99.90;;;;;;5090131;28;20212;-55
2024/01/18 12:02:14;;;;;;;21.23;14.20;;;1.40;99.90;;;;;;5091567;28;20169;-51
2024/01/18 12:04:40;;;;;;;24.40;13.88;;;1.50;99.90;;;;;;5091403;28;20195;-53
2024/01/18 12:07:07;;;;;;;20.90;14.05;;;1.50;99.90;;;;;;5090156;28;20174;-52
2024/01/18 12:09:34;;;;;;;27.92;16.08;;;1.40;99.90;;;;;;5090510;28;20173;-54
2024/01/18 12:12:01;;;;;;;22.75;14.13;;;2.80;99.90;;;;;;5090636;28;20170;-55
2024/01/18 12:14:27;;;;;;;19.15;13.90;;;1.70;99.90;;;;;;5091276;28;20669;-51
2024/01/18 12:16:53;;;;;;;23.48;14.00;;;1.70;99.90;;;;;;5091178;28;20215;-53
2024/01/18 12:19:34;;;;;;;21.52;14.98;;;1.60;99.90;;;;;;5091485;28;20215;-54
2024/01/18 12:22:12;;;;;;;27.90;16.73;;;1.60;99.90;;;;;;5091675;28;20207;-54
2024/01/18 12:24:39;;;;;;;28.02;14.70;;;1.50;99.90;;;;;;5091259;28;20161;-55
2024/01/18 12:27:06;;;;;;;17.88;13.23;;;1.50;99.90;;;;;;5091136;28;20175;-54
2024/01/18 12:29:33;;;;;;;18.23;12.88;;;1.50;99.90;;;;;;5091895;28;20217;-53
2024/01/18 12:31:59;;;;;;;22.27;13.60;;;1.40;99.90;;;;;;5091412;28;20165;-54